sensor_id;sensor_type;location;lat;lon;timestamp;temperature;humidity
64987;DHT22;51532;52.108;9.360;2022-12-18T00:02:01;-6.50;99.90
64987;DHT22;51532;52.108;9.360;2022-12-18T00:04:48;-6.40;99.90
64987;DHT22;51532;52.108;9.360;2022-12-18T00:07:35;-4.70;99.90
64987;DHT22;51532;52.108;9.360;2022-12-18T00:10:23;-6.50;99.90
64987;DHT22;51532;52.108;9.360;2022-12-18T00:13:11;-6.50;99.90
64987;DHT22;51532;52.108;9.360;2022-12-18T00:16:07;-6.60;99.90
64987;DHT22;51532;52.108;9.360;2022-12-18T00:18:56;-6.60;99.90
64987;DHT22;51532;52.108;9.360;2022-12-18T00:21:43;-5.50;99.90
64987;DHT22;51532;52.108;9.360;2022-12-18T00:24:31;-6.70;99.90
64987;DHT22;51532;52.108;9.360;2022-12-18T00:27:18;-6.60;99.90
64987;DHT22;51532;52.108;9.360;2022-12-18T00:30:06;-6.70;99.90
64987;DHT22;51532;52.108;9.360;2022-12-18T00:32:53;-6.70;99.90
64987;DHT22;51532;52.108;9.360;2022-12-18T00:35:40;-6.70;99.90
64987;DHT22;51532;52.108;9.360;2022-12-18T00:38:29;-6.70;99.90
64987;DHT22;51532;52.108;9.360;2022-12-18T00:41:17;-6.70;99.90
64987;DHT22;51532;52.108;9.360;2022-12-18T00:44:25;-6.80;99.90
64987;DHT22;51532;52.108;9.360;2022-12-18T00:47:12;-6.80;99.90
64987;DHT22;51532;52.108;9.360;2022-12-18T00:49:59;-6.80;99.90
64987;DHT22;51532;52.108;9.360;2022-12-18T00:52:46;-6.80;99.90
64987;DHT22;51532;52.108;9.360;2022-12-18T00:55:34;-6.70;99.90
64987;DHT22;51532;52.108;9.360;2022-12-18T00:58:21;-6.70;99.90
64987;DHT22;51532;52.108;9.360;2022-12-18T01:01:08;-6.60;99.90
64987;DHT22;51532;52.108;9.360;2022-12-18T01:03:55;-6.60;99.90
64987;DHT22;51532;52.108;9.360;2022-12-18T01:06:42;-6.70;99.90
64987;DHT22;51532;52.108;9.360;2022-12-18T01:09:30;-6.80;99.90
64987;DHT22;51532;52.108;9.360;2022-12-18T01:12:17;-6.90;99.90
64987;DHT22;51532;52.108;9.360;2022-12-18T01:15:06;-6.80;99.90
64987;DHT22;51532;52.108;9.360;2022-12-18T01:17:53;-6.90;99.90
64987;DHT22;51532;52.108;9.360;2022-12-18T01:20:41;-6.90;99.90
64987;DHT22;51532;52.108;9.360;2022-12-18T01:23:28;-6.20;99.90
64987;DHT22;51532;52.108;9.360;2022-12-18T01:26:16;-7.00;99.90
64987;DHT22;51532;52.108;9.360;2022-12-18T01:29:03;-6.90;99.90
64987;DHT22;51532;52.108;9.360;2022-12-18T01:31:50;-5.30;99.90
64987;DHT22;51532;52.108;9.360;2022-12-18T01:34:38;-6.90;99.90
64987;DHT22;51532;52.108;9.360;2022-12-18T01:37:25;-7.00;99.90
64987;DHT22;51532;52.108;9.360;2022-12-18T01:40:13;-6.80;99.90
64987;DHT22;51532;52.108;9.360;2022-12-18T01:43:00;-6.80;99.90
64987;DHT22;51532;52.108;9.360;2022-12-18T01:45:47;-6.80;99.90
64987;DHT22;51532;52.108;9.360;2022-12-18T01:48:35;-6.80;99.90
64987;DHT22;51532;52.108;9.360;2022-12-18T01:51:24;-6.80;99.90
64987;DHT22;51532;52.108;9.360;2022-12-18T01:54:12;-6.80;99.90
64987;DHT22;51532;52.108;9.360;2022-12-18T01:56:59;-6.80;99.90
64987;DHT22;51532;52.108;9.360;2022-12-18T01:59:52;-6.80;99.90
64987;DHT22;51532;52.108;9.360;2022-12-18T02:02:41;-6.90;99.90
64987;DHT22;51532;52.108;9.360;2022-12-18T02:08:42;-7.00;99.90
64987;DHT22;51532;52.108;9.360;2022-12-18T02:15:00;-6.90;99.90
64987;DHT22;51532;52.108;9.360;2022-12-18T02:20:49;-7.00;99.90
64987;DHT22;51532;52.108;9.360;2022-12-18T02:23:44;-7.00;99.90
64987;DHT22;51532;52.108;9.360;2022-12-18T02:26:43;-7.00;99.90
64987;DHT22;51532;52.108;9.360;2022-12-18T02:29:37;-7.00;99.90
64987;DHT22;51532;52.108;9.360;2022-12-18T02:32:31;-6.90;99.90
64987;DHT22;51532;52.108;9.360;2022-12-18T02:35:25;-6.80;99.90
64987;DHT22;51532;52.108;9.360;2022-12-18T02:38:17;-6.90;99.90
64987;DHT22;51532;52.108;9.360;2022-12-18T02:41:07;-6.90;99.90
64987;DHT22;51532;52.108;9.360;2022-12-18T02:44:01;-6.90;99.90
64987;DHT22;51532;52.108;9.360;2022-12-18T02:46:52;-6.80;99.90
64987;DHT22;51532;52.108;9.360;2022-12-18T02:56:22;-6.90;99.90
64987;DHT22;51532;52.108;9.360;2022-12-18T02:59:21;-6.80;99.90
64987;DHT22;51532;52.108;9.360;2022-12-18T03:02:22;-6.80;99.90
64987;DHT22;51532;52.108;9.360;2022-12-18T03:05:17;-6.70;99.90
64987;DHT22;51532;52.108;9.360;2022-12-18T03:08:12;-6.80;99.90
64987;DHT22;51532;52.108;9.360;2022-12-18T03:11:06;-6.80;99.90
64987;DHT22;51532;52.108;9.360;2022-12-18T03:13:57;-6.80;99.90
64987;DHT22;51532;52.108;9.360;2022-12-18T03:16:47;-6.70;99.90
64987;DHT22;51532;52.108;9.360;2022-12-18T03:19:36;-6.70;99.90
64987;DHT22;51532;52.108;9.360;2022-12-18T03:22:27;-6.80;99.90
64987;DHT22;51532;52.108;9.360;2022-12-18T03:25:17;-6.80;99.90
64987;DHT22;51532;52.108;9.360;2022-12-18T03:28:12;-6.70;99.90
64987;DHT22;51532;52.108;9.360;2022-12-18T03:31:02;-6.80;99.90
64987;DHT22;51532;52.108;9.360;2022-12-18T03:33:54;-6.80;99.90
64987;DHT22;51532;52.108;9.360;2022-12-18T03:36:50;-6.80;99.90
64987;DHT22;51532;52.108;9.360;2022-12-18T03:39:38;-6.80;99.90
64987;DHT22;51532;52.108;9.360;2022-12-18T03:42:29;-6.70;99.90
64987;DHT22;51532;52.108;9.360;2022-12-18T03:45:51;-6.80;99.90
64987;DHT22;51532;52.108;9.360;2022-12-18T03:48:53;-6.80;99.90
64987;DHT22;51532;52.108;9.360;2022-12-18T03:52:04;-6.80;99.90
64987;DHT22;51532;52.108;9.360;2022-12-18T03:54:54;-6.80;99.90
64987;DHT22;51532;52.108;9.360;2022-12-18T03:57:42;-6.90;99.90
64987;DHT22;51532;52.108;9.360;2022-12-18T04:00:32;-6.90;99.90
64987;DHT22;51532;52.108;9.360;2022-12-18T04:03:26;-6.80;99.90
64987;DHT22;51532;52.108;9.360;2022-12-18T04:06:16;-6.80;99.90
64987;DHT22;51532;52.108;9.360;2022-12-18T04:09:04;-6.80;99.90
64987;DHT22;51532;52.108;9.360;2022-12-18T04:11:56;-6.90;99.90
64987;DHT22;51532;52.108;9.360;2022-12-18T04:15:04;-6.80;99.90
64987;DHT22;51532;52.108;9.360;2022-12-18T04:17:52;-6.80;99.90
64987;DHT22;51532;52.108;9.360;2022-12-18T04:20:42;-6.80;99.90
64987;DHT22;51532;52.108;9.360;2022-12-18T04:23:31;-6.70;99.90
64987;DHT22;51532;52.108;9.360;2022-12-18T04:26:18;-6.60;99.90
64987;DHT22;51532;52.108;9.360;2022-12-18T04:29:18;-6.50;99.90
64987;DHT22;51532;52.108;9.360;2022-12-18T04:32:07;-6.50;99.90
64987;DHT22;51532;52.108;9.360;2022-12-18T04:34:56;-6.70;99.90
64987;DHT22;51532;52.108;9.360;2022-12-18T04:37:43;-6.60;99.90
64987;DHT22;51532;52.108;9.360;2022-12-18T04:40:34;-6.60;99.90
64987;DHT22;51532;52.108;9.360;2022-12-18T04:43:24;-6.70;99.90
64987;DHT22;51532;52.108;9.360;2022-12-18T04:46:11;-6.70;99.90
64987;DHT22;51532;52.108;9.360;2022-12-18T04:49:00;-6.70;99.90
64987;DHT22;51532;52.108;9.360;2022-12-18T04:51:47;-6.80;99.90
64987;DHT22;51532;52.108;9.360;2022-12-18T04:54:35;-6.70;99.90
64987;DHT22;51532;52.108;9.360;2022-12-18T04:57:22;-6.60;99.90
64987;DHT22;51532;52.108;9.360;2022-12-18T05:00:09;-6.80;99.90
64987;DHT22;51532;52.108;9.360;2022-12-18T05:02:57;-6.80;99.90
64987;DHT22;51532;52.108;9.360;2022-12-18T05:05:44;-6.90;99.90
64987;DHT22;51532;52.108;9.360;2022-12-18T05:08:32;-7.00;99.90
64987;DHT22;51532;52.108;9.360;2022-12-18T05:11:20;-7.00;99.90
64987;DHT22;51532;52.108;9.360;2022-12-18T05:14:07;-6.90;99.90
64987;DHT22;51532;52.108;9.360;2022-12-18T05:16:54;-7.00;99.90
64987;DHT22;51532;52.108;9.360;2022-12-18T05:19:46;-6.90;99.90
64987;DHT22;51532;52.108;9.360;2022-12-18T05:22:34;-6.90;99.90
64987;DHT22;51532;52.108;9.360;2022-12-18T05:25:21;-6.90;99.90
64987;DHT22;51532;52.108;9.360;2022-12-18T05:28:09;-6.70;99.90
64987;DHT22;51532;52.108;9.360;2022-12-18T05:30:58;-6.80;99.90
64987;DHT22;51532;52.108;9.360;2022-12-18T05:33:45;-6.80;99.90
64987;DHT22;51532;52.108;9.360;2022-12-18T05:36:33;-6.90;99.90
64987;DHT22;51532;52.108;9.360;2022-12-18T05:39:20;-6.90;99.90
64987;DHT22;51532;52.108;9.360;2022-12-18T05:42:07;-6.90;99.90
64987;DHT22;51532;52.108;9.360;2022-12-18T05:44:54;-6.90;99.90
64987;DHT22;51532;52.108;9.360;2022-12-18T05:47:42;-7.00;99.90
64987;DHT22;51532;52.108;9.360;2022-12-18T05:50:29;-7.00;99.90
64987;DHT22;51532;52.108;9.360;2022-12-18T05:53:21;-7.10;99.90
64987;DHT22;51532;52.108;9.360;2022-12-18T05:56:11;-7.10;99.90
64987;DHT22;51532;52.108;9.360;2022-12-18T05:58:59;-7.10;99.90
64987;DHT22;51532;52.108;9.360;2022-12-18T06:01:46;-7.10;99.90
64987;DHT22;51532;52.108;9.360;2022-12-18T06:04:34;-7.10;99.90
64987;DHT22;51532;52.108;9.360;2022-12-18T06:07:21;-7.70;99.90
64987;DHT22;51532;52.108;9.360;2022-12-18T06:10:08;-7.00;99.90
64987;DHT22;51532;52.108;9.360;2022-12-18T06:12:55;-6.90;99.90
64987;DHT22;51532;52.108;9.360;2022-12-18T06:15:43;-6.90;99.90
64987;DHT22;51532;52.108;9.360;2022-12-18T06:18:30;-6.90;99.90
64987;DHT22;51532;52.108;9.360;2022-12-18T06:21:17;-6.90;99.90
64987;DHT22;51532;52.108;9.360;2022-12-18T06:24:05;-7.00;99.90
64987;DHT22;51532;52.108;9.360;2022-12-18T06:26:52;-7.00;99.90
64987;DHT22;51532;52.108;9.360;2022-12-18T06:29:39;-7.00;99.90
64987;DHT22;51532;52.108;9.360;2022-12-18T06:32:27;-7.00;99.90
64987;DHT22;51532;52.108;9.360;2022-12-18T06:35:14;-7.00;99.90
64987;DHT22;51532;52.108;9.360;2022-12-18T06:38:02;-7.10;99.90
64987;DHT22;51532;52.108;9.360;2022-12-18T06:40:49;-7.20;99.90
64987;DHT22;51532;52.108;9.360;2022-12-18T06:43:37;-7.20;99.90
64987;DHT22;51532;52.108;9.360;2022-12-18T06:46:25;-7.10;99.90
64987;DHT22;51532;52.108;9.360;2022-12-18T06:49:12;-7.20;99.90
64987;DHT22;51532;52.108;9.360;2022-12-18T06:52:00;-7.20;99.90
64987;DHT22;51532;52.108;9.360;2022-12-18T06:54:47;-7.20;99.90
64987;DHT22;51532;52.108;9.360;2022-12-18T06:57:34;-7.10;99.90
64987;DHT22;51532;52.108;9.360;2022-12-18T07:00:21;-7.00;99.90
64987;DHT22;51532;52.108;9.360;2022-12-18T07:03:08;-7.10;99.90
64987;DHT22;51532;52.108;9.360;2022-12-18T07:05:56;-7.20;99.90
64987;DHT22;51532;52.108;9.360;2022-12-18T07:08:44;-7.20;99.90
64987;DHT22;51532;52.108;9.360;2022-12-18T07:11:33;-7.10;99.90
64987;DHT22;51532;52.108;9.360;2022-12-18T07:14:20;-7.00;99.90
64987;DHT22;51532;52.108;9.360;2022-12-18T07:17:08;-7.00;99.90
64987;DHT22;51532;52.108;9.360;2022-12-18T07:19:55;-6.90;99.90
64987;DHT22;51532;52.108;9.360;2022-12-18T07:22:43;-6.80;99.90
64987;DHT22;51532;52.108;9.360;2022-12-18T07:25:34;-6.60;99.90
64987;DHT22;51532;52.108;9.360;2022-12-18T07:28:21;-6.80;99.90
64987;DHT22;51532;52.108;9.360;2022-12-18T07:31:13;-6.80;99.90
64987;DHT22;51532;52.108;9.360;2022-12-18T07:34:01;-6.80;99.90
64987;DHT22;51532;52.108;9.360;2022-12-18T07:36:48;-6.90;99.90
64987;DHT22;51532;52.108;9.360;2022-12-18T07:39:36;-6.90;99.90
64987;DHT22;51532;52.108;9.360;2022-12-18T07:42:23;-6.80;99.90
64987;DHT22;51532;52.108;9.360;2022-12-18T07:45:19;-6.80;99.90
64987;DHT22;51532;52.108;9.360;2022-12-18T07:48:07;-6.80;99.90
64987;DHT22;51532;52.108;9.360;2022-12-18T07:51:01;-6.70;99.90
64987;DHT22;51532;52.108;9.360;2022-12-18T07:53:49;-6.70;99.90
64987;DHT22;51532;52.108;9.360;2022-12-18T07:56:38;-6.70;99.90
64987;DHT22;51532;52.108;9.360;2022-12-18T07:59:25;-6.70;99.90
64987;DHT22;51532;52.108;9.360;2022-12-18T08:02:13;-6.70;99.90
64987;DHT22;51532;52.108;9.360;2022-12-18T08:05:01;-6.60;99.90
64987;DHT22;51532;52.108;9.360;2022-12-18T08:07:49;-6.60;99.90
64987;DHT22;51532;52.108;9.360;2022-12-18T08:10:37;-6.70;99.90
64987;DHT22;51532;52.108;9.360;2022-12-18T08:13:25;-6.60;99.90
64987;DHT22;51532;52.108;9.360;2022-12-18T08:16:13;-6.60;99.90
64987;DHT22;51532;52.108;9.360;2022-12-18T08:19:00;-4.40;99.90
64987;DHT22;51532;52.108;9.360;2022-12-18T08:21:47;-6.60;99.90
64987;DHT22;51532;52.108;9.360;2022-12-18T08:24:35;-6.50;99.90
64987;DHT22;51532;52.108;9.360;2022-12-18T08:27:23;-6.40;99.90
64987;DHT22;51532;52.108;9.360;2022-12-18T08:30:17;-5.40;99.90
64987;DHT22;51532;52.108;9.360;2022-12-18T08:33:04;-6.20;99.90
64987;DHT22;51532;52.108;9.360;2022-12-18T08:35:52;-6.10;99.90
64987;DHT22;51532;52.108;9.360;2022-12-18T08:38:39;-6.10;99.90
64987;DHT22;51532;52.108;9.360;2022-12-18T08:41:27;-6.10;99.90
64987;DHT22;51532;52.108;9.360;2022-12-18T08:44:15;-6.00;99.90
64987;DHT22;51532;52.108;9.360;2022-12-18T08:47:21;-6.00;99.90
64987;DHT22;51532;52.108;9.360;2022-12-18T08:50:09;-6.00;99.90
64987;DHT22;51532;52.108;9.360;2022-12-18T08:52:56;-5.90;99.90
64987;DHT22;51532;52.108;9.360;2022-12-18T08:55:43;-5.70;99.90
64987;DHT22;51532;52.108;9.360;2022-12-18T08:58:36;-5.60;99.90
64987;DHT22;51532;52.108;9.360;2022-12-18T09:01:24;-5.60;99.90
64987;DHT22;51532;52.108;9.360;2022-12-18T09:04:11;-5.40;99.90
64987;DHT22;51532;52.108;9.360;2022-12-18T09:06:58;-5.40;99.90
64987;DHT22;51532;52.108;9.360;2022-12-18T09:09:45;-5.30;99.90
64987;DHT22;51532;52.108;9.360;2022-12-18T09:12:32;-5.20;99.90
64987;DHT22;51532;52.108;9.360;2022-12-18T09:15:20;-5.10;99.90
64987;DHT22;51532;52.108;9.360;2022-12-18T09:18:08;-5.10;99.90
64987;DHT22;51532;52.108;9.360;2022-12-18T09:20:56;-5.00;99.90
64987;DHT22;51532;52.108;9.360;2022-12-18T09:23:43;-5.00;99.90
64987;DHT22;51532;52.108;9.360;2022-12-18T09:26:31;-4.80;99.90
64987;DHT22;51532;52.108;9.360;2022-12-18T09:29:18;-4.70;99.90
64987;DHT22;51532;52.108;9.360;2022-12-18T09:32:05;-4.60;99.90
64987;DHT22;51532;52.108;9.360;2022-12-18T09:34:52;-3.00;99.90
64987;DHT22;51532;52.108;9.360;2022-12-18T09:37:39;-4.50;99.90
64987;DHT22;51532;52.108;9.360;2022-12-18T09:40:34;-4.40;99.90
64987;DHT22;51532;52.108;9.360;2022-12-18T09:43:45;-4.40;99.90
64987;DHT22;51532;52.108;9.360;2022-12-18T09:46:37;-4.30;99.90
64987;DHT22;51532;52.108;9.360;2022-12-18T09:49:29;-4.20;99.90
64987;DHT22;51532;52.108;9.360;2022-12-18T09:52:37;-4.10;99.90
64987;DHT22;51532;52.108;9.360;2022-12-18T09:55:38;-3.90;99.90
64987;DHT22;51532;52.108;9.360;2022-12-18T09:58:44;-3.70;99.90
64987;DHT22;51532;52.108;9.360;2022-12-18T10:01:32;-3.70;99.90
64987;DHT22;51532;52.108;9.360;2022-12-18T10:04:31;-3.60;99.90
64987;DHT22;51532;52.108;9.360;2022-12-18T10:10:36;-3.50;99.90
64987;DHT22;51532;52.108;9.360;2022-12-18T10:13:48;-3.40;99.90
64987;DHT22;51532;52.108;9.360;2022-12-18T10:17:07;-3.30;99.90
64987;DHT22;51532;52.108;9.360;2022-12-18T10:20:05;-3.20;99.90
64987;DHT22;51532;52.108;9.360;2022-12-18T10:22:58;-3.20;99.90
64987;DHT22;51532;52.108;9.360;2022-12-18T10:28:37;-3.00;99.90
64987;DHT22;51532;52.108;9.360;2022-12-18T10:31:26;-3.00;99.90
64987;DHT22;51532;52.108;9.360;2022-12-18T10:34:13;-3.00;99.90
64987;DHT22;51532;52.108;9.360;2022-12-18T10:37:03;-4.30;99.90
64987;DHT22;51532;52.108;9.360;2022-12-18T10:40:11;-2.90;99.90
64987;DHT22;51532;52.108;9.360;2022-12-18T10:43:13;-2.80;99.90
64987;DHT22;51532;52.108;9.360;2022-12-18T10:51:37;-2.40;99.90
64987;DHT22;51532;52.108;9.360;2022-12-18T10:54:25;-2.50;99.90
64987;DHT22;51532;52.108;9.360;2022-12-18T10:57:29;-2.40;99.90
64987;DHT22;51532;52.108;9.360;2022-12-18T11:00:27;-2.20;99.90
64987;DHT22;51532;52.108;9.360;2022-12-18T11:06:24;-1.90;99.90
64987;DHT22;51532;52.108;9.360;2022-12-18T11:09:41;-1.90;99.90
64987;DHT22;51532;52.108;9.360;2022-12-18T11:12:28;-1.90;99.90
64987;DHT22;51532;52.108;9.360;2022-12-18T11:15:22;-1.80;99.90
64987;DHT22;51532;52.108;9.360;2022-12-18T11:21:16;-1.60;99.90
64987;DHT22;51532;52.108;9.360;2022-12-18T11:24:03;-1.60;99.90
64987;DHT22;51532;52.108;9.360;2022-12-18T11:26:51;-1.80;99.90
64987;DHT22;51532;52.108;9.360;2022-12-18T11:29:45;-1.90;99.90
64987;DHT22;51532;52.108;9.360;2022-12-18T11:32:39;-1.90;99.90
64987;DHT22;51532;52.108;9.360;2022-12-18T11:35:38;-2.10;99.90
64987;DHT22;51532;52.108;9.360;2022-12-18T11:38:32;-2.10;99.90
64987;DHT22;51532;52.108;9.360;2022-12-18T11:41:46;-2.10;99.90
64987;DHT22;51532;52.108;9.360;2022-12-18T11:45:43;-2.10;99.90
64987;DHT22;51532;52.108;9.360;2022-12-18T11:48:30;-2.20;99.90
64987;DHT22;51532;52.108;9.360;2022-12-18T11:51:33;-2.10;99.90
64987;DHT22;51532;52.108;9.360;2022-12-18T11:54:21;-2.10;99.90
64987;DHT22;51532;52.108;9.360;2022-12-18T12:06:22;-1.80;99.90
64987;DHT22;51532;52.108;9.360;2022-12-18T12:09:28;-1.80;99.90
64987;DHT22;51532;52.108;9.360;2022-12-18T12:15:28;-1.60;99.90
64987;DHT22;51532;52.108;9.360;2022-12-18T12:30:51;-1.30;99.90
64987;DHT22;51532;52.108;9.360;2022-12-18T12:34:19;-1.30;99.90
64987;DHT22;51532;52.108;9.360;2022-12-18T12:40:06;-1.20;99.90
64987;DHT22;51532;52.108;9.360;2022-12-18T12:43:21;-1.20;99.90
64987;DHT22;51532;52.108;9.360;2022-12-18T12:46:11;-1.00;99.90
64987;DHT22;51532;52.108;9.360;2022-12-18T12:49:02;-1.00;99.90
64987;DHT22;51532;52.108;9.360;2022-12-18T12:52:06;-1.00;99.90
64987;DHT22;51532;52.108;9.360;2022-12-18T12:54:55;-1.00;99.90
64987;DHT22;51532;52.108;9.360;2022-12-18T13:01:24;-0.90;99.90
64987;DHT22;51532;52.108;9.360;2022-12-18T13:04:21;-0.80;99.90
64987;DHT22;51532;52.108;9.360;2022-12-18T13:07:16;-0.80;99.90
64987;DHT22;51532;52.108;9.360;2022-12-18T13:13:14;-0.70;99.90
64987;DHT22;51532;52.108;9.360;2022-12-18T13:16:09;-0.70;99.90
64987;DHT22;51532;52.108;9.360;2022-12-18T13:18:58;-0.60;99.90
64987;DHT22;51532;52.108;9.360;2022-12-18T13:21:53;-0.60;99.90
64987;DHT22;51532;52.108;9.360;2022-12-18T13:24:41;-0.70;99.90
64987;DHT22;51532;52.108;9.360;2022-12-18T13:33:38;-0.80;99.90
64987;DHT22;51532;52.108;9.360;2022-12-18T13:36:48;-0.90;99.90
64987;DHT22;51532;52.108;9.360;2022-12-18T13:39:36;-0.90;99.90
64987;DHT22;51532;52.108;9.360;2022-12-18T13:45:42;-0.90;99.90
64987;DHT22;51532;52.108;9.360;2022-12-18T13:51:44;-1.00;99.90
64987;DHT22;51532;52.108;9.360;2022-12-18T13:54:39;-0.90;99.90
64987;DHT22;51532;52.108;9.360;2022-12-18T13:57:38;-0.90;99.90
64987;DHT22;51532;52.108;9.360;2022-12-18T14:00:28;-1.00;99.90
64987;DHT22;51532;52.108;9.360;2022-12-18T14:03:22;-0.90;99.90
64987;DHT22;51532;52.108;9.360;2022-12-18T14:06:12;-1.00;99.90
64987;DHT22;51532;52.108;9.360;2022-12-18T14:09:02;-0.90;99.90
64987;DHT22;51532;52.108;9.360;2022-12-18T14:11:51;-1.00;99.90
64987;DHT22;51532;52.108;9.360;2022-12-18T14:14:41;-1.00;99.90
64987;DHT22;51532;52.108;9.360;2022-12-18T14:17:31;-1.00;99.90
64987;DHT22;51532;52.108;9.360;2022-12-18T14:20:20;-1.00;99.90
64987;DHT22;51532;52.108;9.360;2022-12-18T14:23:33;-1.00;99.90
64987;DHT22;51532;52.108;9.360;2022-12-18T14:26:29;-1.10;99.90
64987;DHT22;51532;52.108;9.360;2022-12-18T14:29:30;-1.10;99.90
64987;DHT22;51532;52.108;9.360;2022-12-18T14:32:19;-1.10;99.90
64987;DHT22;51532;52.108;9.360;2022-12-18T14:35:13;-1.10;99.90
64987;DHT22;51532;52.108;9.360;2022-12-18T14:41:13;-1.10;99.90
64987;DHT22;51532;52.108;9.360;2022-12-18T14:44:05;-1.00;99.90
64987;DHT22;51532;52.108;9.360;2022-12-18T14:46:53;-1.10;99.90
64987;DHT22;51532;52.108;9.360;2022-12-18T14:49:41;-1.10;99.90
64987;DHT22;51532;52.108;9.360;2022-12-18T14:52:31;0.10;99.90
64987;DHT22;51532;52.108;9.360;2022-12-18T14:55:20;-1.20;99.90
64987;DHT22;51532;52.108;9.360;2022-12-18T14:58:13;-1.20;99.90
64987;DHT22;51532;52.108;9.360;2022-12-18T15:01:02;-1.20;99.90
64987;DHT22;51532;52.108;9.360;2022-12-18T15:03:50;-1.20;99.90
64987;DHT22;51532;52.108;9.360;2022-12-18T15:06:38;-1.30;99.90
64987;DHT22;51532;52.108;9.360;2022-12-18T15:09:28;-1.40;99.90
64987;DHT22;51532;52.108;9.360;2022-12-18T15:12:35;-1.40;99.90
64987;DHT22;51532;52.108;9.360;2022-12-18T15:18:35;-1.40;99.90
64987;DHT22;51532;52.108;9.360;2022-12-18T15:21:28;-1.50;99.90
64987;DHT22;51532;52.108;9.360;2022-12-18T15:24:29;-1.50;99.90
64987;DHT22;51532;52.108;9.360;2022-12-18T15:33:24;-1.40;99.90
64987;DHT22;51532;52.108;9.360;2022-12-18T15:36:13;-1.40;99.90
64987;DHT22;51532;52.108;9.360;2022-12-18T15:39:01;-1.40;99.90
64987;DHT22;51532;52.108;9.360;2022-12-18T15:41:52;-1.40;99.90
64987;DHT22;51532;52.108;9.360;2022-12-18T15:44:58;-1.40;99.90
64987;DHT22;51532;52.108;9.360;2022-12-18T15:47:45;-1.40;99.90
64987;DHT22;51532;52.108;9.360;2022-12-18T15:50:32;-1.40;99.90
64987;DHT22;51532;52.108;9.360;2022-12-18T15:53:19;-1.40;99.90
64987;DHT22;51532;52.108;9.360;2022-12-18T15:56:14;-1.40;99.90
64987;DHT22;51532;52.108;9.360;2022-12-18T15:59:22;-1.30;99.90
64987;DHT22;51532;52.108;9.360;2022-12-18T16:02:15;-0.60;99.90
64987;DHT22;51532;52.108;9.360;2022-12-18T16:05:05;-1.40;99.90
64987;DHT22;51532;52.108;9.360;2022-12-18T16:07:56;-1.30;99.90
64987;DHT22;51532;52.108;9.360;2022-12-18T16:10:44;-1.40;99.90
64987;DHT22;51532;52.108;9.360;2022-12-18T16:13:31;-1.40;99.90
64987;DHT22;51532;52.108;9.360;2022-12-18T16:16:18;-1.40;99.90
64987;DHT22;51532;52.108;9.360;2022-12-18T16:19:06;-1.40;99.90
64987;DHT22;51532;52.108;9.360;2022-12-18T16:21:55;-1.30;99.90
64987;DHT22;51532;52.108;9.360;2022-12-18T16:24:42;-1.40;99.90
64987;DHT22;51532;52.108;9.360;2022-12-18T16:27:30;-1.40;99.90
64987;DHT22;51532;52.108;9.360;2022-12-18T16:30:27;-1.40;99.90
64987;DHT22;51532;52.108;9.360;2022-12-18T16:33:22;-1.30;99.90
64987;DHT22;51532;52.108;9.360;2022-12-18T16:36:09;-1.20;99.90
64987;DHT22;51532;52.108;9.360;2022-12-18T16:38:56;-1.20;99.90
64987;DHT22;51532;52.108;9.360;2022-12-18T16:41:43;-1.20;99.90
64987;DHT22;51532;52.108;9.360;2022-12-18T16:44:31;-1.10;99.90
64987;DHT22;51532;52.108;9.360;2022-12-18T16:47:18;-1.10;99.90
64987;DHT22;51532;52.108;9.360;2022-12-18T16:50:06;-1.00;99.90
64987;DHT22;51532;52.108;9.360;2022-12-18T16:52:54;-0.90;99.90
64987;DHT22;51532;52.108;9.360;2022-12-18T16:55:41;-0.80;99.90
64987;DHT22;51532;52.108;9.360;2022-12-18T16:58:28;-0.80;99.90
64987;DHT22;51532;52.108;9.360;2022-12-18T17:01:15;-0.80;99.90
64987;DHT22;51532;52.108;9.360;2022-12-18T17:04:05;-0.80;99.90
64987;DHT22;51532;52.108;9.360;2022-12-18T17:06:52;-0.80;99.90
64987;DHT22;51532;52.108;9.360;2022-12-18T17:09:40;0.80;99.90
64987;DHT22;51532;52.108;9.360;2022-12-18T17:12:28;-0.80;99.90
64987;DHT22;51532;52.108;9.360;2022-12-18T17:15:15;-0.80;99.90
64987;DHT22;51532;52.108;9.360;2022-12-18T17:18:03;-0.80;99.90
64987;DHT22;51532;52.108;9.360;2022-12-18T17:20:50;-0.70;99.90
64987;DHT22;51532;52.108;9.360;2022-12-18T17:23:37;-0.70;99.90
64987;DHT22;51532;52.108;9.360;2022-12-18T17:26:27;-0.70;99.90
64987;DHT22;51532;52.108;9.360;2022-12-18T17:29:16;-0.60;99.90
64987;DHT22;51532;52.108;9.360;2022-12-18T17:32:05;-0.60;99.90
64987;DHT22;51532;52.108;9.360;2022-12-18T17:34:52;-0.70;99.90
64987;DHT22;51532;52.108;9.360;2022-12-18T17:37:39;-0.70;99.90
64987;DHT22;51532;52.108;9.360;2022-12-18T17:40:26;-0.60;99.90
64987;DHT22;51532;52.108;9.360;2022-12-18T17:43:14;-0.60;99.90
64987;DHT22;51532;52.108;9.360;2022-12-18T17:46:02;-0.60;99.90
64987;DHT22;51532;52.108;9.360;2022-12-18T17:48:51;-0.60;99.90
64987;DHT22;51532;52.108;9.360;2022-12-18T17:51:38;-0.60;99.90
64987;DHT22;51532;52.108;9.360;2022-12-18T17:54:28;-0.60;99.90
64987;DHT22;51532;52.108;9.360;2022-12-18T17:57:15;-0.60;99.90
64987;DHT22;51532;52.108;9.360;2022-12-18T18:00:04;-0.60;99.90
64987;DHT22;51532;52.108;9.360;2022-12-18T18:02:55;-0.60;99.90
64987;DHT22;51532;52.108;9.360;2022-12-18T18:05:42;-0.60;99.90
64987;DHT22;51532;52.108;9.360;2022-12-18T18:08:30;-0.50;99.90
64987;DHT22;51532;52.108;9.360;2022-12-18T18:11:19;-0.50;99.90
64987;DHT22;51532;52.108;9.360;2022-12-18T18:14:26;-0.40;99.90
64987;DHT22;51532;52.108;9.360;2022-12-18T18:17:13;-0.40;99.90
64987;DHT22;51532;52.108;9.360;2022-12-18T18:20:01;-0.40;99.90
64987;DHT22;51532;52.108;9.360;2022-12-18T18:22:48;-0.40;99.90
64987;DHT22;51532;52.108;9.360;2022-12-18T18:25:36;-0.40;99.90
64987;DHT22;51532;52.108;9.360;2022-12-18T18:28:23;-0.50;99.90
64987;DHT22;51532;52.108;9.360;2022-12-18T18:31:11;-0.50;99.90
64987;DHT22;51532;52.108;9.360;2022-12-18T18:33:58;-0.50;99.90
64987;DHT22;51532;52.108;9.360;2022-12-18T18:36:45;-0.40;99.90
64987;DHT22;51532;52.108;9.360;2022-12-18T18:39:33;-0.50;99.90
64987;DHT22;51532;52.108;9.360;2022-12-18T18:42:20;-0.40;99.90
64987;DHT22;51532;52.108;9.360;2022-12-18T18:45:08;-0.50;99.90
64987;DHT22;51532;52.108;9.360;2022-12-18T18:47:55;-0.50;99.90
64987;DHT22;51532;52.108;9.360;2022-12-18T18:50:42;-0.50;99.90
64987;DHT22;51532;52.108;9.360;2022-12-18T18:53:39;-0.50;99.90
64987;DHT22;51532;52.108;9.360;2022-12-18T18:56:27;-0.50;99.90
64987;DHT22;51532;52.108;9.360;2022-12-18T18:59:35;-0.50;99.90
64987;DHT22;51532;52.108;9.360;2022-12-18T19:02:22;-0.50;99.90
64987;DHT22;51532;52.108;9.360;2022-12-18T19:05:11;-0.50;99.90
64987;DHT22;51532;52.108;9.360;2022-12-18T19:07:58;-0.60;99.90
64987;DHT22;51532;52.108;9.360;2022-12-18T19:10:50;-0.50;99.90
64987;DHT22;51532;52.108;9.360;2022-12-18T19:13:44;-0.50;99.90
64987;DHT22;51532;52.108;9.360;2022-12-18T19:16:32;-0.50;99.90
64987;DHT22;51532;52.108;9.360;2022-12-18T19:19:19;-0.50;99.90
64987;DHT22;51532;52.108;9.360;2022-12-18T19:22:07;-0.60;99.90
64987;DHT22;51532;52.108;9.360;2022-12-18T19:24:55;-0.60;99.90
64987;DHT22;51532;52.108;9.360;2022-12-18T19:27:42;-0.60;99.90
64987;DHT22;51532;52.108;9.360;2022-12-18T19:30:29;-0.50;99.90
64987;DHT22;51532;52.108;9.360;2022-12-18T19:33:16;-0.60;99.90